Time;durP1;ratioP1;P1;durP2;ratioP2;P2;SDS_P1;SDS_P2;PMS_P1;PMS_P2;Temp;Humidity;BMP_temperature;BMP_pressure;BME280_temperature;BME280_humidity;BME280_pressure;Samples;Min_cycle;Max_cycle;Signal;HPM_P1;HPM_P2
2021/06/26 00:00:59;;;;;;;9.25;7.95;;;19.40;70.50;;;;;;5028997;28;20087;-67
2021/06/26 00:03:27;;;;;;;8.13;7.10;;;19.40;70.60;;;;;;5026536;28;20038;-66
2021/06/26 00:05:55;;;;;;;9.20;7.18;;;19.40;70.80;;;;;;5021245;28;20035;-66
2021/06/26 00:08:23;;;;;;;9.30;7.43;;;19.40;70.80;;;;;;5032028;28;20116;-66
2021/06/26 00:10:49;;;;;;;8.75;6.85;;;19.30;70.90;;;;;;5021826;28;20072;-67
2021/06/26 00:13:15;;;;;;;8.77;7.15;;;19.30;71.10;;;;;;5026330;28;20104;-66
2021/06/26 00:15:41;;;;;;;7.78;6.90;;;19.30;71.10;;;;;;5023947;28;20124;-67
2021/06/26 00:18:07;;;;;;;8.23;6.97;;;19.30;71.20;;;;;;5026738;28;20117;-67
2021/06/26 00:20:33;;;;;;;8.45;7.07;;;19.20;71.10;;;;;;5022326;28;20120;-67
2021/06/26 00:22:59;;;;;;;8.82;7.55;;;19.20;71.10;;;;;;5021142;28;20060;-66
2021/06/26 00:25:25;;;;;;;8.15;6.95;;;19.20;71.10;;;;;;5025483;28;20041;-67
2021/06/26 00:27:51;;;;;;;8.48;7.05;;;19.20;71.30;;;;;;5021974;28;20047;-66
2021/06/26 00:30:17;;;;;;;9.13;7.60;;;19.20;71.20;;;;;;5027141;28;20102;-66
2021/06/26 00:32:43;;;;;;;8.63;7.53;;;19.20;71.30;;;;;;5022072;28;20116;-66
2021/06/26 00:35:10;;;;;;;10.15;7.95;;;19.20;71.10;;;;;;5023139;28;20033;-66
2021/06/26 00:37:36;;;;;;;9.52;7.65;;;19.20;71.20;;;;;;5022731;28;20037;-66
2021/06/26 00:40:03;;;;;;;11.77;8.80;;;19.10;71.10;;;;;;5026574;28;20029;-67
2021/06/26 00:42:36;;;;;;;10.43;8.20;;;19.10;70.90;;;;;;5027101;28;20061;-67
2021/06/26 00:45:05;;;;;;;9.27;8.13;;;19.10;71.10;;;;;;5024728;28;20029;-66
2021/06/26 00:47:30;;;;;;;10.85;8.13;;;19.10;71.00;;;;;;5028415;28;20041;-66
2021/06/26 00:49:57;;;;;;;9.95;8.07;;;19.00;70.80;;;;;;5020548;28;20037;-66
2021/06/26 00:52:23;;;;;;;9.85;7.57;;;19.00;70.90;;;;;;5019280;28;20053;-67
2021/06/26 00:54:49;;;;;;;9.43;7.97;;;18.90;70.90;;;;;;5019146;28;20068;-67
2021/06/26 00:57:16;;;;;;;13.10;7.55;;;18.90;71.10;;;;;;5025608;28;20044;-66
2021/06/26 00:59:41;;;;;;;9.55;8.07;;;18.80;71.10;;;;;;5034823;28;20029;-66
2021/06/26 01:02:08;;;;;;;10.55;8.07;;;18.70;71.00;;;;;;5027951;28;20130;-66
2021/06/26 01:04:34;;;;;;;9.60;8.00;;;18.70;71.20;;;;;;5028012;28;20030;-67
2021/06/26 01:07:00;;;;;;;10.20;8.18;;;18.60;71.20;;;;;;5018659;28;20030;-67
2021/06/26 01:09:26;;;;;;;10.05;8.20;;;18.60;71.30;;;;;;5033859;28;20099;-66
2021/06/26 01:11:58;;;;;;;12.82;9.30;;;18.50;71.30;;;;;;5023270;28;20389;-67
2021/06/26 01:14:25;;;;;;;11.25;8.82;;;18.50;71.50;;;;;;5022481;28;20091;-67
2021/06/26 01:16:51;;;;;;;11.13;8.38;;;18.40;71.50;;;;;;5018329;28;20036;-67
2021/06/26 01:19:16;;;;;;;11.52;8.13;;;18.30;71.40;;;;;;5022600;28;20033;-66
2021/06/26 01:21:42;;;;;;;12.38;8.73;;;18.30;71.60;;;;;;5020594;28;20118;-66
2021/06/26 01:24:08;;;;;;;10.82;8.68;;;18.20;71.60;;;;;;5019433;28;20029;-66
2021/06/26 01:26:36;;;;;;;10.48;8.02;;;18.20;71.70;;;;;;5023982;28;20095;-67
2021/06/26 01:29:07;;;;;;;10.70;8.27;;;18.20;71.80;;;;;;5021133;28;20037;-66
2021/06/26 01:31:33;;;;;;;12.48;7.82;;;18.20;71.60;;;;;;5035256;28;20044;-66
2021/06/26 01:33:59;;;;;;;12.23;7.93;;;18.10;71.70;;;;;;5019030;28;20033;-67
2021/06/26 01:36:25;;;;;;;9.80;7.93;;;18.10;72.00;;;;;;5019394;28;20033;-67
2021/06/26 01:38:58;;;;;;;12.77;8.13;;;18.10;72.00;;;;;;5025233;28;20129;-66
2021/06/26 01:41:28;;;;;;;9.65;7.53;;;18.10;72.50;;;;;;5026014;28;20037;-67
2021/06/26 01:43:53;;;;;;;10.00;8.23;;;18.10;72.00;;;;;;5022304;28;20033;-66
2021/06/26 01:46:19;;;;;;;10.35;8.50;;;18.00;71.90;;;;;;5024930;28;20043;-67
2021/06/26 01:48:45;;;;;;;11.32;8.27;;;18.00;72.10;;;;;;5020288;28;20041;-67
2021/06/26 01:51:11;;;;;;;11.00;8.57;;;17.90;72.10;;;;;;5022436;28;20120;-67
2021/06/26 01:53:36;;;;;;;10.43;8.40;;;17.90;72.30;;;;;;5023902;28;20124;-66
2021/06/26 01:56:02;;;;;;;11.50;8.88;;;17.80;72.30;;;;;;5020587;28;20045;-66
2021/06/26 01:58:28;;;;;;;10.98;8.68;;;17.70;72.50;;;;;;5022970;28;20084;-66
2021/06/26 02:00:54;;;;;;;11.10;8.90;;;17.70;72.50;;;;;;5021416;28;20042;-67
2021/06/26 02:03:19;;;;;;;14.70;9.32;;;17.60;72.60;;;;;;5021986;28;20040;-66
2021/06/26 02:05:45;;;;;;;10.63;9.10;;;17.60;72.80;;;;;;5023672;28;20055;-66
2021/06/26 02:08:10;;;;;;;12.38;9.13;;;17.50;73.90;;;;;;5022529;28;20037;-66
2021/06/26 02:10:36;;;;;;;11.27;9.00;;;17.50;73.30;;;;;;5019620;28;20781;-66
2021/06/26 02:13:02;;;;;;;11.77;8.73;;;17.50;73.40;;;;;;5025090;28;20034;-66
2021/06/26 02:15:28;;;;;;;10.63;8.07;;;17.40;73.50;;;;;;5020813;28;20117;-66
2021/06/26 02:17:54;;;;;;;10.40;8.05;;;17.40;73.50;;;;;;5022626;28;20042;-66
2021/06/26 02:20:19;;;;;;;10.23;7.90;;;17.40;73.50;;;;;;5021892;28;20033;-66
2021/06/26 02:22:45;;;;;;;11.13;8.63;;;17.30;73.50;;;;;;5019718;28;20045;-66
2021/06/26 02:25:12;;;;;;;9.73;7.72;;;17.30;73.90;;;;;;5016996;28;20033;-66
2021/06/26 02:27:38;;;;;;;12.27;8.38;;;17.30;74.00;;;;;;5032815;28;20117;-66
2021/06/26 02:30:07;;;;;;;12.68;8.93;;;17.30;74.00;;;;;;5025575;28;20056;-66
2021/06/26 02:32:33;;;;;;;10.27;7.82;;;17.30;74.30;;;;;;5021738;28;20669;-68
2021/06/26 02:34:59;;;;;;;12.70;9.07;;;17.30;74.20;;;;;;5019162;28;20558;-66
2021/06/26 02:37:24;;;;;;;10.75;8.00;;;17.30;74.00;;;;;;5022918;28;20037;-66
2021/06/26 02:39:50;;;;;;;13.88;8.85;;;17.40;74.00;;;;;;5020755;28;20084;-67
2021/06/26 02:42:16;;;;;;;13.15;8.18;;;17.30;73.90;;;;;;5023489;28;20059;-66
2021/06/26 02:44:42;;;;;;;9.25;7.68;;;17.30;73.90;;;;;;5024834;28;20538;-66
2021/06/26 02:47:08;;;;;;;13.27;8.57;;;17.30;73.80;;;;;;5026672;28;20112;-66
2021/06/26 02:49:34;;;;;;;12.52;8.85;;;17.30;73.80;;;;;;5029173;28;20048;-66
2021/06/26 02:51:59;;;;;;;25.13;9.88;;;17.30;74.00;;;;;;5016149;28;20039;-66
2021/06/26 02:54:25;;;;;;;11.23;8.55;;;17.30;75.10;;;;;;5039986;28;20033;-66
2021/06/26 02:56:51;;;;;;;11.23;8.55;;;17.30;74.40;;;;;;5028392;28;20037;-66
2021/06/26 02:59:16;;;;;;;10.98;8.63;;;17.30;74.50;;;;;;5029963;28;20030;-66
2021/06/26 03:01:42;;;;;;;11.07;8.73;;;17.20;74.50;;;;;;5029603;28;20120;-66
2021/06/26 03:04:08;;;;;;;12.43;9.38;;;17.30;74.60;;;;;;5024589;28;20920;-66
2021/06/26 03:06:33;;;;;;;13.35;9.55;;;17.30;74.60;;;;;;5037362;28;20052;-66
2021/06/26 03:08:59;;;;;;;13.50;8.82;;;17.20;74.60;;;;;;5038343;28;20044;-66
2021/06/26 03:11:24;;;;;;;11.32;8.68;;;17.30;74.70;;;;;;5022615;28;20509;-67
2021/06/26 03:13:50;;;;;;;12.30;9.00;;;17.20;74.70;;;;;;5030013;28;20071;-66
2021/06/26 03:16:16;;;;;;;12.40;9.13;;;17.20;74.80;;;;;;5019544;28;20033;-66
2021/06/26 03:18:43;;;;;;;16.05;9.50;;;17.20;74.90;;;;;;5032079;28;20056;-66
2021/06/26 03:21:11;;;;;;;16.52;9.13;;;17.20;74.90;;;;;;5031423;28;20026;-66
2021/06/26 03:23:38;;;;;;;14.80;8.98;;;17.20;75.10;;;;;;5031552;28;20404;-66
2021/06/26 03:26:05;;;;;;;168.63;10.70;;;17.20;75.10;;;;;;5023701;28;20033;-66
2021/06/26 03:28:31;;;;;;;103.40;8.93;;;17.20;75.20;;;;;;5025632;28;20040;-66
2021/06/26 03:30:57;;;;;;;23.83;9.63;;;17.20;75.30;;;;;;5034090;28;20117;-66
2021/06/26 03:33:22;;;;;;;12.85;8.85;;;17.20;75.40;;;;;;5031542;28;20626;-66
2021/06/26 03:35:48;;;;;;;16.60;8.30;;;17.20;75.70;;;;;;5034831;28;20025;-66
2021/06/26 03:38:14;;;;;;;12.43;9.05;;;17.20;75.90;;;;;;5029245;28;20116;-66
2021/06/26 03:40:39;;;;;;;104.50;10.32;;;17.20;76.80;;;;;;5027667;28;20045;-66
2021/06/26 03:43:05;;;;;;;93.22;9.50;;;17.20;76.00;;;;;;5022716;28;20063;-66
2021/06/26 03:45:31;;;;;;;76.57;8.52;;;17.20;76.00;;;;;;5025677;28;20029;-66
2021/06/26 03:47:57;;;;;;;33.75;8.63;;;17.20;76.10;;;;;;5024961;28;20104;-66
2021/06/26 03:50:22;;;;;;;12.82;8.60;;;17.10;76.10;;;;;;5026741;28;20034;-66
2021/06/26 03:52:48;;;;;;;16.52;8.18;;;17.10;77.10;;;;;;5025474;28;20083;-66
2021/06/26 03:55:14;;;;;;;29.88;8.95;;;17.10;76.40;;;;;;5024544;28;20029;-66
2021/06/26 03:57:39;;;;;;;23.55;8.60;;;17.10;76.40;;;;;;5023891;28;20962;-66
2021/06/26 04:00:06;;;;;;;16.70;9.40;;;17.10;76.40;;;;;;5023978;28;20030;-66
2021/06/26 04:02:32;;;;;;;16.00;9.48;;;17.00;76.30;;;;;;5021370;28;20036;-66
2021/06/26 04:04:58;;;;;;;13.65;9.23;;;17.00;76.30;;;;;;5026982;28;20029;-67
2021/06/26 04:07:23;;;;;;;11.43;8.82;;;17.00;76.30;;;;;;5018691;28;20048;-66
2021/06/26 04:09:49;;;;;;;13.43;9.18;;;17.00;76.30;;;;;;5028281;28;20091;-66
2021/06/26 04:12:14;;;;;;;31.73;9.25;;;17.10;76.40;;;;;;5033022;28;20037;-66
2021/06/26 04:14:40;;;;;;;13.90;8.90;;;17.10;76.40;;;;;;5020540;28;20535;-67
2021/06/26 04:17:06;;;;;;;26.30;8.68;;;17.10;76.40;;;;;;5028239;28;20090;-66
2021/06/26 04:19:32;;;;;;;12.85;8.70;;;17.10;76.40;;;;;;5027155;28;20114;-66
2021/06/26 04:21:58;;;;;;;15.13;8.43;;;17.20;76.40;;;;;;5035684;28;20128;-66
2021/06/26 04:24:23;;;;;;;14.93;9.13;;;17.20;76.30;;;;;;5025895;28;20075;-66
2021/06/26 04:26:49;;;;;;;11.90;8.23;;;17.20;76.40;;;;;;5021650;28;20084;-66
2021/06/26 04:29:15;;;;;;;16.55;8.23;;;17.20;76.40;;;;;;5034328;28;20092;-66
2021/06/26 04:31:40;;;;;;;14.30;8.30;;;17.20;76.50;;;;;;5028984;28;20559;-66
2021/06/26 04:34:06;;;;;;;16.15;10.07;;;17.20;76.50;;;;;;5023290;28;20041;-66
2021/06/26 04:36:32;;;;;;;19.83;12.43;;;17.20;76.70;;;;;;5024137;28;20030;-65
2021/06/26 04:38:57;;;;;;;28.95;15.85;;;17.20;76.90;;;;;;5027166;28;20038;-66
2021/06/26 04:41:23;;;;;;;16.38;12.07;;;17.20;76.80;;;;;;5035464;28;20045;-65
2021/06/26 04:43:49;;;;;;;13.70;9.48;;;17.20;76.80;;;;;;5028019;28;20071;-66
2021/06/26 04:46:15;;;;;;;16.58;8.45;;;17.30;77.10;;;;;;5024771;28;20033;-66
2021/06/26 04:48:41;;;;;;;21.08;8.35;;;17.30;77.10;;;;;;5022570;28;20041;-66
2021/06/26 04:51:08;;;;;;;12.13;8.02;;;17.30;77.10;;;;;;5022288;28;20053;-66
2021/06/26 04:53:33;;;;;;;16.33;8.45;;;17.30;77.10;;;;;;5043484;28;20037;-68
2021/06/26 04:55:59;;;;;;;11.20;8.50;;;17.30;77.20;;;;;;5029429;28;20030;-66
2021/06/26 04:58:26;;;;;;;10.25;8.18;;;17.30;77.30;;;;;;5015536;28;20038;-66
2021/06/26 05:00:52;;;;;;;13.93;8.65;;;17.30;77.30;;;;;;5022818;28;20086;-66
2021/06/26 05:03:22;;;;;;;21.83;8.40;;;17.30;77.30;;;;;;5023119;28;20056;-66
2021/06/26 05:05:50;;;;;;;13.15;8.88;;;17.30;77.60;;;;;;5034641;28;20431;-66
2021/06/26 05:08:16;;;;;;;11.82;8.75;;;17.30;77.60;;;;;;5028398;28;20044;-66
2021/06/26 05:10:42;;;;;;;19.45;9.95;;;17.40;77.70;;;;;;5021607;28;20025;-68
2021/06/26 05:13:08;;;;;;;14.98;9.73;;;17.30;77.60;;;;;;5021902;28;20036;-69
2021/06/26 05:15:34;;;;;;;12.98;9.70;;;17.40;77.50;;;;;;5022144;28;20037;-68
2021/06/26 05:18:00;;;;;;;14.13;10.18;;;17.40;77.50;;;;;;5024600;28;20037;-66
2021/06/26 05:20:25;;;;;;;15.75;11.20;;;17.50;77.70;;;;;;5015710;28;20045;-66
2021/06/26 05:22:51;;;;;;;17.00;10.93;;;17.50;77.90;;;;;;5014782;28;20045;-66
2021/06/26 05:25:17;;;;;;;16.55;11.85;;;17.60;78.00;;;;;;5014965;28;20034;-66
2021/06/26 05:27:43;;;;;;;19.65;12.40;;;17.60;78.20;;;;;;5016453;28;20025;-66
2021/06/26 05:30:10;;;;;;;18.83;12.80;;;17.70;78.10;;;;;;5024252;28;20151;-66
2021/06/26 05:32:35;;;;;;;19.50;13.20;;;17.80;78.00;;;;;;5034105;28;20037;-66
2021/06/26 05:35:02;;;;;;;18.90;13.00;;;17.80;77.80;;;;;;5022568;28;20034;-65
2021/06/26 05:37:27;;;;;;;18.45;12.70;;;17.90;77.70;;;;;;5024023;28;20041;-66
2021/06/26 05:39:53;;;;;;;17.38;12.82;;;18.00;77.70;;;;;;5022413;28;20111;-66
2021/06/26 05:42:19;;;;;;;17.27;13.05;;;18.00;77.50;;;;;;5028305;28;20563;-66
2021/06/26 05:44:44;;;;;;;19.08;13.00;;;18.10;77.50;;;;;;5019620;28;20042;-66
2021/06/26 05:47:10;;;;;;;17.75;13.20;;;18.20;77.50;;;;;;5020409;28;20041;-66
2021/06/26 05:49:36;;;;;;;18.10;13.68;;;18.20;77.20;;;;;;5025558;28;20041;-66
2021/06/26 05:52:01;;;;;;;17.98;13.38;;;18.30;77.20;;;;;;5021336;28;20524;-66
2021/06/26 05:54:27;;;;;;;17.20;13.50;;;18.30;77.00;;;;;;5021817;28;20757;-66
2021/06/26 05:56:53;;;;;;;16.95;13.15;;;18.40;76.80;;;;;;5023132;28;20400;-66
2021/06/26 05:59:18;;;;;;;18.00;12.77;;;18.40;76.80;;;;;;5022334;28;20033;-67
2021/06/26 06:01:44;;;;;;;17.98;13.30;;;18.50;76.70;;;;;;5009120;28;20095;-66
2021/06/26 06:04:10;;;;;;;19.38;14.43;;;18.50;76.60;;;;;;5025527;28;20132;-66
2021/06/26 06:06:37;;;;;;;19.35;14.02;;;18.50;76.60;;;;;;5021202;28;20038;-66
2021/06/26 06:09:06;;;;;;;17.05;12.90;;;18.60;76.60;;;;;;5021914;28;21298;-66
2021/06/26 06:11:32;;;;;;;18.88;13.93;;;18.60;76.60;;;;;;5028715;28;20464;-66
2021/06/26 06:13:58;;;;;;;18.77;14.52;;;18.70;76.60;;;;;;5026538;28;20553;-66
2021/06/26 06:16:24;;;;;;;18.27;14.18;;;18.70;76.60;;;;;;5024894;28;20033;-66
2021/06/26 06:18:50;;;;;;;20.35;15.00;;;18.80;76.60;;;;;;5025738;28;20109;-66
2021/06/26 06:21:17;;;;;;;22.80;15.93;;;18.80;76.60;;;;;;5026058;28;20056;-66
2021/06/26 06:23:43;;;;;;;23.02;15.55;;;18.90;76.70;;;;;;5023730;28;20044;-67
2021/06/26 06:26:09;;;;;;;21.63;15.43;;;18.90;76.70;;;;;;5024060;28;20058;-66
2021/06/26 06:28:34;;;;;;;25.13;17.55;;;18.90;76.60;;;;;;5022574;28;20030;-66
2021/06/26 06:31:01;;;;;;;28.25;18.65;;;19.00;76.70;;;;;;5024587;28;20598;-66
2021/06/26 06:33:27;;;;;;;27.27;18.45;;;19.10;76.70;;;;;;5022458;28;20025;-66
2021/06/26 06:35:53;;;;;;;29.60;19.42;;;19.10;76.40;;;;;;5022356;28;20057;-66
2021/06/26 06:38:18;;;;;;;26.50;17.92;;;19.20;76.30;;;;;;5030534;28;20215;-66
2021/06/26 06:40:44;;;;;;;28.80;20.02;;;19.20;76.30;;;;;;5036794;28;20041;-66
2021/06/26 06:43:10;;;;;;;32.13;21.77;;;19.30;76.10;;;;;;5035151;28;20623;-66
2021/06/26 06:45:36;;;;;;;35.10;22.40;;;19.30;75.80;;;;;;5028845;28;20036;-66
2021/06/26 06:48:01;;;;;;;32.45;21.85;;;19.40;75.80;;;;;;5026152;28;20120;-66
2021/06/26 06:50:27;;;;;;;31.88;22.17;;;19.50;75.80;;;;;;5026595;28;21277;-66
2021/06/26 06:52:52;;;;;;;34.35;21.88;;;19.50;75.50;;;;;;5031802;28;20088;-66
2021/06/26 06:55:18;;;;;;;30.80;20.90;;;19.50;75.40;;;;;;5036977;28;20086;-66
2021/06/26 06:57:44;;;;;;;29.88;20.52;;;19.50;75.50;;;;;;5034763;28;20040;-66
2021/06/26 07:00:11;;;;;;;30.08;21.23;;;19.60;75.50;;;;;;5034835;28;20033;-66
2021/06/26 07:02:38;;;;;;;32.83;21.15;;;19.70;75.30;;;;;;5028771;28;20021;-66
2021/06/26 07:05:04;;;;;;;32.25;21.25;;;19.70;75.20;;;;;;5024466;28;20030;-67
2021/06/26 07:07:30;;;;;;;31.70;21.15;;;19.70;74.80;;;;;;5025962;28;20037;-66
2021/06/26 07:09:56;;;;;;;28.02;19.65;;;19.70;74.70;;;;;;5033845;28;20052;-66
2021/06/26 07:12:22;;;;;;;28.20;19.00;;;19.70;74.60;;;;;;5029610;28;21020;-66
2021/06/26 07:14:47;;;;;;;29.20;18.63;;;19.70;74.40;;;;;;5032172;28;20040;-66
2021/06/26 07:17:13;;;;;;;26.38;17.55;;;19.70;74.60;;;;;;5039677;28;20571;-66
2021/06/26 07:19:39;;;;;;;27.42;17.98;;;19.80;74.40;;;;;;5027583;28;20057;-66
2021/06/26 07:22:04;;;;;;;22.17;16.85;;;19.80;73.70;;;;;;5031060;28;20041;-66
2021/06/26 07:24:30;;;;;;;24.42;18.20;;;19.90;73.30;;;;;;5028430;28;20033;-66
2021/06/26 07:26:56;;;;;;;20.42;15.35;;;19.80;73.30;;;;;;5027281;28;20156;-66
2021/06/26 07:29:22;;;;;;;19.90;15.30;;;19.80;73.40;;;;;;5020124;28;20034;-66
2021/06/26 07:31:48;;;;;;;18.95;14.85;;;19.90;73.60;;;;;;5038046;28;20050;-66
2021/06/26 07:34:14;;;;;;;19.98;15.70;;;19.90;73.50;;;;;;5024724;28;20033;-66
2021/06/26 07:36:39;;;;;;;19.60;14.85;;;20.00;73.70;;;;;;5026231;28;20033;-66
2021/06/26 07:39:06;;;;;;;19.65;13.95;;;20.00;73.70;;;;;;5025371;28;20125;-66
2021/06/26 07:41:32;;;;;;;16.75;13.30;;;20.10;73.50;;;;;;5025887;28;20576;-66
2021/06/26 07:43:58;;;;;;;18.08;13.98;;;20.20;73.10;;;;;;5025280;28;20095;-66
2021/06/26 07:46:24;;;;;;;19.60;14.68;;;20.30;72.70;;;;;;5029240;28;20575;-67
2021/06/26 07:48:49;;;;;;;19.88;15.65;;;20.30;72.10;;;;;;5034111;28;20043;-67
2021/06/26 07:51:15;;;;;;;19.42;15.07;;;20.40;72.10;;;;;;5038743;28;20754;-67
2021/06/26 07:53:41;;;;;;;21.45;16.30;;;20.40;72.90;;;;;;5037822;28;20060;-66
2021/06/26 07:56:07;;;;;;;17.52;14.57;;;20.40;72.70;;;;;;5038078;28;20713;-67
2021/06/26 07:58:32;;;;;;;17.77;14.60;;;20.50;72.70;;;;;;5031252;28;20555;-67
2021/06/26 08:00:58;;;;;;;18.15;14.82;;;20.50;72.80;;;;;;5032253;28;20032;-67
2021/06/26 08:03:25;;;;;;;19.08;14.15;;;20.60;72.80;;;;;;5037974;28;20446;-67
2021/06/26 08:05:51;;;;;;;16.98;13.93;;;20.70;72.50;;;;;;5036260;28;20677;-67
2021/06/26 08:08:18;;;;;;;16.85;13.32;;;20.70;71.40;;;;;;5037647;28;20544;-66
2021/06/26 08:10:44;;;;;;;16.13;12.75;;;20.80;71.60;;;;;;5033494;28;20683;-66
2021/06/26 08:13:13;;;;;;;13.60;11.55;;;20.80;71.60;;;;;;5035939;28;20033;-66
2021/06/26 08:15:39;;;;;;;16.52;13.48;;;20.90;71.20;;;;;;5020648;28;20045;-67
2021/06/26 08:18:06;;;;;;;13.23;11.80;;;21.00;71.60;;;;;;5026401;28;20061;-67
2021/06/26 08:20:33;;;;;;;13.00;11.55;;;21.00;71.60;;;;;;5025441;28;20061;-67
2021/06/26 08:22:59;;;;;;;14.05;12.20;;;21.10;71.20;;;;;;5033438;28;20068;-66
2021/06/26 08:25:25;;;;;;;15.60;12.45;;;21.20;70.60;;;;;;5033721;28;20064;-66
2021/06/26 08:27:52;;;;;;;12.85;11.15;;;21.30;70.50;;;;;;5033911;28;20036;-66
2021/06/26 08:30:18;;;;;;;14.50;11.30;;;21.40;70.20;;;;;;5027704;28;20480;-66
2021/06/26 08:32:44;;;;;;;14.23;12.10;;;21.50;69.70;;;;;;5026970;28;20370;-67
2021/06/26 08:35:11;;;;;;;13.45;11.10;;;21.60;69.50;;;;;;5033096;28;20026;-67
2021/06/26 08:37:39;;;;;;;12.48;10.77;;;21.70;69.20;;;;;;5031153;28;20029;-67
2021/06/26 08:40:06;;;;;;;11.30;10.05;;;21.80;69.20;;;;;;5031173;28;20033;-67
2021/06/26 08:42:32;;;;;;;10.57;9.43;;;21.80;69.50;;;;;;5028627;28;20036;-67
2021/06/26 08:45:03;;;;;;;11.40;10.20;;;21.90;69.00;;;;;;5036132;28;20124;-67
2021/06/26 08:47:29;;;;;;;12.00;10.02;;;22.10;67.80;;;;;;5028961;28;20033;-66
2021/06/26 08:49:55;;;;;;;9.77;8.80;;;22.10;68.10;;;;;;5033943;28;20167;-66
2021/06/26 08:52:21;;;;;;;10.77;9.55;;;22.20;68.20;;;;;;5026502;28;20463;-67
2021/06/26 08:54:54;;;;;;;9.20;8.02;;;22.40;68.00;;;;;;5030316;28;20034;-67
2021/06/26 08:57:37;;;;;;;10.60;9.50;;;22.40;67.40;;;;;;5010446;28;20045;-66
2021/06/26 09:00:10;;;;;;;11.20;10.02;;;22.50;67.20;;;;;;5027161;28;20037;-67
2021/06/26 09:02:36;;;;;;;11.45;9.40;;;22.60;68.20;;;;;;5031202;28;20041;-66
2021/06/26 09:05:03;;;;;;;9.80;8.80;;;22.70;66.80;;;;;;5032652;28;20033;-67
2021/06/26 09:07:31;;;;;;;9.70;8.70;;;22.80;66.60;;;;;;5031605;28;20057;-66
2021/06/26 09:09:58;;;;;;;9.93;8.65;;;22.80;66.40;;;;;;5031839;28;20519;-67
2021/06/26 09:12:26;;;;;;;9.27;8.38;;;22.90;66.80;;;;;;5029967;28;20064;-66
2021/06/26 09:14:53;;;;;;;8.70;7.65;;;22.90;65.40;;;;;;5028153;28;20092;-67
2021/06/26 09:17:31;;;;;;;9.88;8.88;;;23.00;65.40;;;;;;5032831;28;20049;-66
2021/06/26 09:20:02;;;;;;;9.85;7.13;;;23.00;62.30;;;;;;5032140;28;20048;-67
2021/06/26 09:22:41;;;;;;;6.43;5.82;;;23.00;64.80;;;;;;5028287;28;20029;-67
2021/06/26 09:25:31;;;;;;;7.53;6.15;;;23.00;64.50;;;;;;5028713;28;20087;-67
2021/06/26 09:28:02;;;;;;;6.28;5.70;;;23.10;63.00;;;;;;5030921;28;20037;-67
2021/06/26 09:30:54;;;;;;;7.50;6.20;;;23.20;64.00;;;;;;5032420;28;20493;-67
2021/06/26 09:33:24;;;;;;;6.05;5.45;;;23.20;62.00;;;;;;5029531;28;20112;-66
2021/06/26 09:36:23;;;;;;;6.43;5.82;;;23.30;63.60;;;;;;5031993;28;20032;-66
2021/06/26 09:39:01;;;;;;;6.43;5.82;;;23.40;62.50;;;;;;5023426;28;20029;-67
2021/06/26 09:41:28;;;;;;;6.57;5.97;;;23.50;62.70;;;;;;5028978;28;20026;-67
2021/06/26 09:43:54;;;;;;;7.05;6.35;;;23.60;63.30;;;;;;5029650;28;20099;-67
2021/06/26 09:46:21;;;;;;;6.47;5.85;;;23.60;62.90;;;;;;5028347;28;20026;-67
2021/06/26 09:48:49;;;;;;;6.47;5.88;;;23.70;62.80;;;;;;5025969;28;20041;-67
2021/06/26 09:51:55;;;;;;;5.30;4.80;;;23.70;62.20;;;;;;5028666;28;20038;-67
2021/06/26 09:54:25;;;;;;;;;;;23.80;61.30;;;;;;5002080;28;20103;-67
2021/06/26 09:56:50;;;;;;;4.20;3.88;;;23.90;62.60;;;;;;5025170;28;19913;-67
2021/06/26 09:59:19;;;;;;;5.78;5.28;;;24.00;62.40;;;;;;5029667;28;20033;-67
2021/06/26 10:01:47;;;;;;;4.50;4.20;;;24.10;61.40;;;;;;5030947;28;20033;-67
2021/06/26 10:04:16;;;;;;;4.80;4.38;;;24.20;61.00;;;;;;5022142;28;20057;-67
2021/06/26 10:06:42;;;;;;;4.88;4.47;;;24.20;60.90;;;;;;5026290;28;20037;-67
2021/06/26 10:09:09;;;;;;;4.95;4.55;;;24.40;60.30;;;;;;5031481;28;20415;-67
2021/06/26 10:11:36;;;;;;;5.35;4.95;;;24.50;60.60;;;;;;5028078;28;20041;-66
2021/06/26 10:14:05;;;;;;;4.88;4.47;;;24.60;60.00;;;;;;5033243;28;20037;-67
2021/06/26 10:16:32;;;;;;;4.38;3.78;;;24.60;59.10;;;;;;5032503;28;20042;-67
2021/06/26 10:19:01;;;;;;;3.92;3.63;;;24.70;58.90;;;;;;5032550;28;20500;-67
2021/06/26 10:21:28;;;;;;;3.75;3.45;;;24.70;58.90;;;;;;5032009;28;20196;-67
2021/06/26 10:23:59;;;;;;;3.95;3.65;;;24.80;58.80;;;;;;5036588;28;20381;-67
2021/06/26 10:26:27;;;;;;;3.90;3.60;;;24.90;57.60;;;;;;5033618;28;20029;-67
2021/06/26 10:29:04;;;;;;;4.85;4.45;;;25.00;58.30;;;;;;5035483;28;20033;-67
2021/06/26 10:31:40;;;;;;;4.07;3.78;;;25.10;57.70;;;;;;5036415;28;20041;-67
2021/06/26 10:34:19;;;;;;;3.97;3.58;;;25.20;57.20;;;;;;5034128;28;20565;-67
2021/06/26 10:36:56;;;;;;;4.15;3.75;;;25.30;57.40;;;;;;5032637;28;20404;-67
2021/06/26 10:39:30;;;;;;;3.33;3.08;;;25.40;57.70;;;;;;5035576;28;20041;-67
2021/06/26 10:42:19;;;;;;;3.60;3.40;;;25.40;57.00;;;;;;5036382;28;20061;-67
2021/06/26 10:44:50;;;;;;;3.40;3.13;;;25.50;57.50;;;;;;5025815;28;20042;-67
2021/06/26 10:47:17;;;;;;;3.42;3.17;;;25.60;56.50;;;;;;5032851;28;20112;-67
2021/06/26 10:49:44;;;;;;;3.10;2.85;;;25.70;56.20;;;;;;5027848;28;20046;-67
2021/06/26 10:52:14;;;;;;;3.17;2.95;;;25.70;56.20;;;;;;5025283;28;20037;-67
2021/06/26 10:54:56;;;;;;;3.20;3.00;;;25.70;56.00;;;;;;5028949;28;20456;-67
2021/06/26 10:57:24;;;;;;;3.25;3.05;;;25.80;54.70;;;;;;5031730;28;20479;-67
2021/06/26 11:00:01;;;;;;;2.63;2.42;;;25.80;55.40;;;;;;5036550;28;20053;-67
2021/06/26 11:02:45;;;;;;;3.40;3.20;;;25.80;55.00;;;;;;5034750;28;20083;-67
2021/06/26 11:05:12;;;;;;;3.05;2.85;;;25.80;54.70;;;;;;5032117;28;20041;-67
2021/06/26 11:07:39;;;;;;;2.83;2.50;;;25.90;56.00;;;;;;5028381;28;20083;-67
2021/06/26 11:10:10;;;;;;;2.50;2.40;;;25.80;55.00;;;;;;5033664;28;20043;-67
2021/06/26 11:12:42;;;;;;;2.72;2.53;;;25.80;53.10;;;;;;5031879;28;20041;-67
2021/06/26 11:15:08;;;;;;;2.33;2.20;;;25.80;53.60;;;;;;5027656;28;20045;-67
2021/06/26 11:17:36;;;;;;;2.58;2.42;;;25.80;54.30;;;;;;5032781;28;21398;-66
2021/06/26 11:20:08;;;;;;;2.17;2.08;;;25.80;54.10;;;;;;5031901;28;20029;-67
2021/06/26 11:22:34;;;;;;;2.45;2.25;;;25.90;53.80;;;;;;5032913;28;20041;-67
2021/06/26 11:25:00;;;;;;;2.22;2.13;;;26.00;53.50;;;;;;5028620;28;20037;-67
2021/06/26 11:27:26;;;;;;;2.30;2.20;;;26.00;53.60;;;;;;5034006;28;20033;-67
2021/06/26 11:30:00;;;;;;;2.40;2.20;;;26.10;53.50;;;;;;5032411;28;20042;-67
2021/06/26 11:32:27;;;;;;;2.45;2.35;;;26.10;52.80;;;;;;5032513;28;20096;-67
2021/06/26 11:35:01;;;;;;;2.60;2.40;;;26.20;53.20;;;;;;5031293;28;20041;-67
2021/06/26 11:37:35;;;;;;;2.30;2.20;;;26.30;52.60;;;;;;5035058;28;20080;-67
2021/06/26 11:40:15;;;;;;;3.97;2.20;;;26.40;52.50;;;;;;5034269;28;20052;-67
2021/06/26 11:42:54;;;;;;;3.42;1.85;;;26.40;53.10;;;;;;5032213;28;20045;-67
2021/06/26 11:45:24;;;;;;;3.42;2.38;;;26.40;53.00;;;;;;5030608;28;20556;-67
2021/06/26 11:48:03;;;;;;;2.08;1.98;;;26.50;52.20;;;;;;5047745;28;20415;-67
2021/06/26 11:50:29;;;;;;;2.38;2.28;;;26.50;52.00;;;;;;5032185;28;20026;-67
2021/06/26 11:53:16;;;;;;;2.20;2.00;;;26.60;52.30;;;;;;5032218;28;20037;-67
2021/06/26 11:55:55;;;;;;;2.03;1.92;;;26.60;51.70;;;;;;5032953;28;20100;-67
2021/06/26 11:58:21;;;;;;;2.35;2.20;;;26.60;52.00;;;;;;5032535;28;20076;-67
2021/06/26 12:01:00;;;;;;;2.17;1.98;;;26.60;51.60;;;;;;5030627;28;20049;-67
2021/06/26 12:03:29;;;;;;;3.10;2.15;;;26.60;51.30;;;;;;5033926;28;20508;-67
2021/06/26 12:06:08;;;;;;;2.25;2.05;;;26.60;51.50;;;;;;5033053;28;20097;-67
2021/06/26 12:08:41;;;;;;;1.95;1.85;;;26.60;51.90;;;;;;5032990;28;20030;-67
2021/06/26 12:11:14;;;;;;;2.10;2.00;;;26.70;51.50;;;;;;5032300;28;20021;-67
2021/06/26 12:13:44;;;;;;;2.33;2.13;;;26.70;52.40;;;;;;5032235;28;20065;-67
2021/06/26 12:16:23;;;;;;;2.05;1.95;;;26.90;51.50;;;;;;5031983;28;20030;-67
2021/06/26 12:18:54;;;;;;;2.22;2.13;;;26.90;51.00;;;;;;5033115;28;20040;-67
2021/06/26 12:21:25;;;;;;;2.17;2.03;;;26.90;51.10;;;;;;5032130;28;20033;-67
2021/06/26 12:23:53;;;;;;;1.92;1.83;;;26.90;51.30;;;;;;5032790;28;21441;-67
2021/06/26 12:26:23;;;;;;;1.90;1.80;;;26.80;50.90;;;;;;5029552;28;20469;-67
2021/06/26 12:28:49;;;;;;;1.80;1.70;;;26.80;50.90;;;;;;5032221;28;20041;-67
2021/06/26 12:31:16;;;;;;;1.90;1.77;;;26.80;51.10;;;;;;5028181;28;20037;-67
2021/06/26 12:33:43;;;;;;;1.95;1.85;;;26.80;51.10;;;;;;5024289;28;20099;-67
2021/06/26 12:36:17;;;;;;;1.88;1.77;;;26.80;50.80;;;;;;5034093;28;20429;-67
2021/06/26 12:38:44;;;;;;;1.93;1.83;;;26.90;49.30;;;;;;5032004;28;20068;-67
2021/06/26 12:41:21;;;;;;;1.77;1.67;;;26.90;51.00;;;;;;5020403;28;20144;-67